sensor_id;sensor_type;location;lat;lon;timestamp;P1;durP1;ratioP1;P2;durP2;ratioP2
37309;SDS011;23195;47.744;7.358;2023-03-01T06:48:04;45.83;;;22.23;;
37309;SDS011;23195;47.744;7.358;2023-03-01T06:50:30;47.43;;;21.40;;
37309;SDS011;23195;47.744;7.358;2023-03-01T06:52:56;46.10;;;21.23;;
37309;SDS011;23195;47.744;7.358;2023-03-01T06:55:22;51.43;;;21.17;;
37309;SDS011;23195;47.744;7.358;2023-03-01T06:57:48;42.13;;;21.03;;
37309;SDS011;23195;47.744;7.358;2023-03-01T07:00:14;46.97;;;20.47;;
37309;SDS011;23195;47.744;7.358;2023-03-01T07:02:40;44.30;;;20.47;;
37309;SDS011;23195;47.744;7.358;2023-03-01T07:05:09;41.67;;;19.57;;
37309;SDS011;23195;47.744;7.358;2023-03-01T07:07:35;43.10;;;20.23;;
37309;SDS011;23195;47.744;7.358;2023-03-01T07:10:05;41.90;;;19.63;;
37309;SDS011;23195;47.744;7.358;2023-03-01T07:12:40;40.37;;;19.63;;
37309;SDS011;23195;47.744;7.358;2023-03-01T07:15:12;49.30;;;20.53;;
37309;SDS011;23195;47.744;7.358;2023-03-01T07:17:40;45.80;;;19.20;;
37309;SDS011;23195;47.744;7.358;2023-03-01T07:20:12;41.77;;;20.23;;
37309;SDS011;23195;47.744;7.358;2023-03-01T07:22:41;44.10;;;19.90;;
37309;SDS011;23195;47.744;7.358;2023-03-01T07:25:25;43.53;;;21.53;;
37309;SDS011;23195;47.744;7.358;2023-03-01T07:31:18;42.03;;;19.90;;
37309;SDS011;23195;47.744;7.358;2023-03-01T07:34:11;42.77;;;19.47;;
37309;SDS011;23195;47.744;7.358;2023-03-01T07:36:37;46.60;;;20.43;;
37309;SDS011;23195;47.744;7.358;2023-03-01T07:39:04;43.90;;;19.50;;
37309;SDS011;23195;47.744;7.358;2023-03-01T07:41:30;43.00;;;19.70;;
37309;SDS011;23195;47.744;7.358;2023-03-01T07:43:56;38.37;;;18.73;;
37309;SDS011;23195;47.744;7.358;2023-03-01T07:46:22;41.37;;;19.60;;
37309;SDS011;23195;47.744;7.358;2023-03-01T07:48:47;42.23;;;19.73;;
37309;SDS011;23195;47.744;7.358;2023-03-01T07:51:13;43.97;;;19.23;;
37309;SDS011;23195;47.744;7.358;2023-03-01T07:53:39;42.90;;;19.10;;
37309;SDS011;23195;47.744;7.358;2023-03-01T07:56:06;41.70;;;20.03;;
37309;SDS011;23195;47.744;7.358;2023-03-01T07:58:34;41.57;;;19.50;;
37309;SDS011;23195;47.744;7.358;2023-03-01T08:01:05;40.17;;;18.97;;
37309;SDS011;23195;47.744;7.358;2023-03-01T08:03:32;43.37;;;20.07;;
37309;SDS011;23195;47.744;7.358;2023-03-01T08:05:59;42.17;;;19.43;;
37309;SDS011;23195;47.744;7.358;2023-03-01T08:08:29;39.67;;;19.00;;
37309;SDS011;23195;47.744;7.358;2023-03-01T08:10:56;40.27;;;19.10;;
37309;SDS011;23195;47.744;7.358;2023-03-01T08:13:22;41.47;;;20.67;;
37309;SDS011;23195;47.744;7.358;2023-03-01T08:15:48;39.37;;;19.13;;
37309;SDS011;23195;47.744;7.358;2023-03-01T08:18:16;40.77;;;19.07;;
37309;SDS011;23195;47.744;7.358;2023-03-01T08:20:43;41.20;;;19.43;;
37309;SDS011;23195;47.744;7.358;2023-03-01T08:23:09;40.53;;;19.90;;
37309;SDS011;23195;47.744;7.358;2023-03-01T08:25:35;40.00;;;19.60;;
37309;SDS011;23195;47.744;7.358;2023-03-01T08:28:03;41.10;;;20.27;;
37309;SDS011;23195;47.744;7.358;2023-03-01T08:30:29;43.33;;;19.93;;
37309;SDS011;23195;47.744;7.358;2023-03-01T08:32:55;46.13;;;19.27;;
37309;SDS011;23195;47.744;7.358;2023-03-01T08:35:21;38.23;;;19.13;;
37309;SDS011;23195;47.744;7.358;2023-03-01T08:37:47;39.57;;;19.43;;
37309;SDS011;23195;47.744;7.358;2023-03-01T08:40:13;41.70;;;20.13;;
37309;SDS011;23195;47.744;7.358;2023-03-01T08:42:39;40.30;;;19.70;;
37309;SDS011;23195;47.744;7.358;2023-03-01T08:45:08;40.73;;;19.63;;
37309;SDS011;23195;47.744;7.358;2023-03-01T08:47:35;39.80;;;20.27;;
37309;SDS011;23195;47.744;7.358;2023-03-01T08:50:02;39.00;;;19.30;;
37309;SDS011;23195;47.744;7.358;2023-03-01T08:52:28;43.53;;;20.13;;
37309;SDS011;23195;47.744;7.358;2023-03-01T08:54:55;38.97;;;19.27;;
37309;SDS011;23195;47.744;7.358;2023-03-01T08:57:23;38.50;;;19.33;;
37309;SDS011;23195;47.744;7.358;2023-03-01T08:59:49;41.97;;;19.10;;
37309;SDS011;23195;47.744;7.358;2023-03-01T09:02:16;43.13;;;19.40;;
37309;SDS011;23195;47.744;7.358;2023-03-01T09:04:43;39.60;;;19.53;;
37309;SDS011;23195;47.744;7.358;2023-03-01T09:07:12;40.67;;;18.67;;
37309;SDS011;23195;47.744;7.358;2023-03-01T09:09:37;42.30;;;19.23;;
37309;SDS011;23195;47.744;7.358;2023-03-01T09:12:03;41.17;;;18.60;;
37309;SDS011;23195;47.744;7.358;2023-03-01T09:14:29;42.90;;;19.83;;
37309;SDS011;23195;47.744;7.358;2023-03-01T09:16:55;37.00;;;18.17;;
37309;SDS011;23195;47.744;7.358;2023-03-01T09:19:21;42.13;;;19.60;;
37309;SDS011;23195;47.744;7.358;2023-03-01T09:21:50;40.77;;;20.00;;
37309;SDS011;23195;47.744;7.358;2023-03-01T09:24:22;47.27;;;21.93;;
37309;SDS011;23195;47.744;7.358;2023-03-01T09:26:52;61.87;;;23.40;;
37309;SDS011;23195;47.744;7.358;2023-03-01T09:29:23;37.97;;;18.40;;
37309;SDS011;23195;47.744;7.358;2023-03-01T09:31:49;41.77;;;19.93;;
37309;SDS011;23195;47.744;7.358;2023-03-01T09:34:14;39.03;;;18.57;;
37309;SDS011;23195;47.744;7.358;2023-03-01T09:36:44;40.63;;;18.77;;
37309;SDS011;23195;47.744;7.358;2023-03-01T09:39:10;37.87;;;18.50;;
37309;SDS011;23195;47.744;7.358;2023-03-01T09:41:46;40.30;;;19.67;;
37309;SDS011;23195;47.744;7.358;2023-03-01T09:44:28;41.90;;;19.47;;
37309;SDS011;23195;47.744;7.358;2023-03-01T09:47:04;37.67;;;18.13;;
37309;SDS011;23195;47.744;7.358;2023-03-01T09:52:29;39.00;;;19.00;;
37309;SDS011;23195;47.744;7.358;2023-03-01T09:55:14;40.50;;;19.73;;
37309;SDS011;23195;47.744;7.358;2023-03-01T09:57:47;40.07;;;20.00;;
37309;SDS011;23195;47.744;7.358;2023-03-01T10:00:33;37.17;;;18.87;;
37309;SDS011;23195;47.744;7.358;2023-03-01T10:03:26;40.83;;;19.50;;
37309;SDS011;23195;47.744;7.358;2023-03-01T10:06:01;45.27;;;20.10;;
37309;SDS011;23195;47.744;7.358;2023-03-01T10:08:43;39.00;;;19.23;;
37309;SDS011;23195;47.744;7.358;2023-03-01T10:11:22;41.40;;;19.80;;
37309;SDS011;23195;47.744;7.358;2023-03-01T10:16:55;37.37;;;18.33;;
37309;SDS011;23195;47.744;7.358;2023-03-01T10:19:42;39.83;;;18.93;;
37309;SDS011;23195;47.744;7.358;2023-03-01T10:22:15;35.10;;;18.60;;
37309;SDS011;23195;47.744;7.358;2023-03-01T10:24:53;42.73;;;19.23;;
37309;SDS011;23195;47.744;7.358;2023-03-01T10:27:26;38.20;;;19.80;;
37309;SDS011;23195;47.744;7.358;2023-03-01T10:32:41;40.83;;;19.37;;
37309;SDS011;23195;47.744;7.358;2023-03-01T10:40:52;39.60;;;19.07;;
37309;SDS011;23195;47.744;7.358;2023-03-01T10:43:23;35.40;;;18.83;;
37309;SDS011;23195;47.744;7.358;2023-03-01T10:45:58;36.23;;;18.13;;
37309;SDS011;23195;47.744;7.358;2023-03-01T10:48:25;37.77;;;18.97;;
37309;SDS011;23195;47.744;7.358;2023-03-01T10:53:34;42.43;;;20.83;;
37309;SDS011;23195;47.744;7.358;2023-03-01T10:56:04;39.63;;;18.50;;
37309;SDS011;23195;47.744;7.358;2023-03-01T10:58:33;35.53;;;18.97;;
37309;SDS011;23195;47.744;7.358;2023-03-01T11:03:37;35.47;;;18.77;;
37309;SDS011;23195;47.744;7.358;2023-03-01T11:09:12;38.53;;;19.77;;
37309;SDS011;23195;47.744;7.358;2023-03-01T11:11:40;39.00;;;20.70;;
37309;SDS011;23195;47.744;7.358;2023-03-01T11:14:12;38.83;;;19.77;;
37309;SDS011;23195;47.744;7.358;2023-03-01T11:16:44;40.50;;;19.27;;
37309;SDS011;23195;47.744;7.358;2023-03-01T11:21:41;38.00;;;21.30;;
37309;SDS011;23195;47.744;7.358;2023-03-01T11:24:16;38.13;;;18.57;;
37309;SDS011;23195;47.744;7.358;2023-03-01T11:26:45;38.00;;;19.13;;
37309;SDS011;23195;47.744;7.358;2023-03-01T11:29:25;39.90;;;20.63;;
37309;SDS011;23195;47.744;7.358;2023-03-01T11:31:56;37.20;;;20.20;;
37309;SDS011;23195;47.744;7.358;2023-03-01T11:34:49;48.90;;;23.63;;
37309;SDS011;23195;47.744;7.358;2023-03-01T12:05:58;33.53;;;18.23;;
37309;SDS011;23195;47.744;7.358;2023-03-01T12:22:09;32.63;;;18.00;;
37309;SDS011;23195;47.744;7.358;2023-03-01T12:39:55;33.60;;;18.07;;
37309;SDS011;23195;47.744;7.358;2023-03-01T12:50:51;33.23;;;17.67;;
37309;SDS011;23195;47.744;7.358;2023-03-01T12:53:40;35.37;;;18.07;;
37309;SDS011;23195;47.744;7.358;2023-03-01T12:56:09;34.17;;;18.07;;
37309;SDS011;23195;47.744;7.358;2023-03-01T13:11:52;33.77;;;18.63;;
37309;SDS011;23195;47.744;7.358;2023-03-01T13:16:50;32.10;;;17.23;;
37309;SDS011;23195;47.744;7.358;2023-03-01T13:21:54;32.93;;;17.83;;
37309;SDS011;23195;47.744;7.358;2023-03-01T13:24:33;34.67;;;18.37;;
37309;SDS011;23195;47.744;7.358;2023-03-01T13:29:53;33.17;;;17.43;;
37309;SDS011;23195;47.744;7.358;2023-03-01T13:32:23;33.70;;;18.43;;
37309;SDS011;23195;47.744;7.358;2023-03-01T13:34:54;31.57;;;18.03;;
37309;SDS011;23195;47.744;7.358;2023-03-01T13:37:27;31.10;;;18.13;;
37309;SDS011;23195;47.744;7.358;2023-03-01T13:39:58;33.63;;;18.23;;
37309;SDS011;23195;47.744;7.358;2023-03-01T13:45:12;32.93;;;17.70;;
37309;SDS011;23195;47.744;7.358;2023-03-01T13:47:45;34.53;;;18.00;;
37309;SDS011;23195;47.744;7.358;2023-03-01T13:50:19;32.03;;;17.57;;
37309;SDS011;23195;47.744;7.358;2023-03-01T13:52:50;31.83;;;17.67;;
37309;SDS011;23195;47.744;7.358;2023-03-01T13:57:53;36.27;;;18.20;;
37309;SDS011;23195;47.744;7.358;2023-03-01T14:00:28;32.40;;;17.33;;
37309;SDS011;23195;47.744;7.358;2023-03-01T14:03:08;32.90;;;17.37;;
37309;SDS011;23195;47.744;7.358;2023-03-01T14:05:39;27.37;;;16.37;;
37309;SDS011;23195;47.744;7.358;2023-03-01T14:08:20;36.57;;;19.23;;
37309;SDS011;23195;47.744;7.358;2023-03-01T14:10:54;32.03;;;17.07;;
37309;SDS011;23195;47.744;7.358;2023-03-01T14:18:45;34.83;;;18.50;;
37309;SDS011;23195;47.744;7.358;2023-03-01T14:21:21;33.57;;;18.17;;
37309;SDS011;23195;47.744;7.358;2023-03-01T14:23:47;29.00;;;17.17;;
37309;SDS011;23195;47.744;7.358;2023-03-01T14:26:13;127.00;;;35.87;;
37309;SDS011;23195;47.744;7.358;2023-03-01T14:28:47;34.40;;;19.67;;
37309;SDS011;23195;47.744;7.358;2023-03-01T14:34:03;42.20;;;22.00;;
37309;SDS011;23195;47.744;7.358;2023-03-01T14:36:30;37.87;;;20.77;;
37309;SDS011;23195;47.744;7.358;2023-03-01T14:38:57;39.27;;;21.30;;
37309;SDS011;23195;47.744;7.358;2023-03-01T14:41:29;36.63;;;20.47;;
37309;SDS011;23195;47.744;7.358;2023-03-01T14:44:05;36.30;;;19.97;;
37309;SDS011;23195;47.744;7.358;2023-03-01T14:46:37;38.73;;;20.10;;
37309;SDS011;23195;47.744;7.358;2023-03-01T14:49:19;37.03;;;20.30;;
37309;SDS011;23195;47.744;7.358;2023-03-01T14:51:58;39.30;;;21.20;;
37309;SDS011;23195;47.744;7.358;2023-03-01T14:54:28;36.40;;;20.27;;
37309;SDS011;23195;47.744;7.358;2023-03-01T14:57:05;37.73;;;20.77;;
37309;SDS011;23195;47.744;7.358;2023-03-01T14:59:38;40.87;;;21.33;;
37309;SDS011;23195;47.744;7.358;2023-03-01T15:02:08;39.67;;;21.33;;
37309;SDS011;23195;47.744;7.358;2023-03-01T15:04:42;41.90;;;22.23;;
37309;SDS011;23195;47.744;7.358;2023-03-01T15:07:12;38.43;;;21.33;;
37309;SDS011;23195;47.744;7.358;2023-03-01T15:09:42;42.60;;;22.17;;
37309;SDS011;23195;47.744;7.358;2023-03-01T15:14:52;41.03;;;21.20;;
37309;SDS011;23195;47.744;7.358;2023-03-01T15:17:32;42.17;;;22.20;;
37309;SDS011;23195;47.744;7.358;2023-03-01T15:20:06;39.50;;;21.67;;
37309;SDS011;23195;47.744;7.358;2023-03-01T15:22:43;38.87;;;21.57;;
37309;SDS011;23195;47.744;7.358;2023-03-01T15:25:19;39.30;;;21.27;;
37309;SDS011;23195;47.744;7.358;2023-03-01T15:27:52;44.57;;;23.03;;
37309;SDS011;23195;47.744;7.358;2023-03-01T15:30:27;43.83;;;22.07;;
37309;SDS011;23195;47.744;7.358;2023-03-01T15:35:57;41.93;;;21.60;;
37309;SDS011;23195;47.744;7.358;2023-03-01T15:38:59;40.57;;;21.23;;
37309;SDS011;23195;47.744;7.358;2023-03-01T15:43:56;41.83;;;21.67;;
37309;SDS011;23195;47.744;7.358;2023-03-01T15:46:30;42.40;;;21.40;;
37309;SDS011;23195;47.744;7.358;2023-03-01T15:49:00;39.77;;;20.73;;
37309;SDS011;23195;47.744;7.358;2023-03-01T15:51:29;39.20;;;21.40;;
37309;SDS011;23195;47.744;7.358;2023-03-01T15:54:02;37.27;;;20.53;;
37309;SDS011;23195;47.744;7.358;2023-03-01T15:56:37;39.93;;;21.00;;
37309;SDS011;23195;47.744;7.358;2023-03-01T15:59:03;38.90;;;20.47;;
37309;SDS011;23195;47.744;7.358;2023-03-01T16:01:29;40.13;;;20.50;;
37309;SDS011;23195;47.744;7.358;2023-03-01T16:03:55;41.53;;;21.30;;
37309;SDS011;23195;47.744;7.358;2023-03-01T16:06:23;43.67;;;21.50;;
37309;SDS011;23195;47.744;7.358;2023-03-01T16:08:49;38.43;;;20.40;;
37309;SDS011;23195;47.744;7.358;2023-03-01T16:11:18;43.50;;;21.67;;
37309;SDS011;23195;47.744;7.358;2023-03-01T16:13:44;41.90;;;21.40;;
37309;SDS011;23195;47.744;7.358;2023-03-01T16:16:11;40.33;;;20.97;;
37309;SDS011;23195;47.744;7.358;2023-03-01T16:18:42;44.23;;;22.10;;
37309;SDS011;23195;47.744;7.358;2023-03-01T16:21:11;43.27;;;22.60;;
37309;SDS011;23195;47.744;7.358;2023-03-01T16:23:40;38.33;;;21.20;;
37309;SDS011;23195;47.744;7.358;2023-03-01T16:26:07;43.87;;;22.87;;
37309;SDS011;23195;47.744;7.358;2023-03-01T16:28:33;41.10;;;21.97;;
37309;SDS011;23195;47.744;7.358;2023-03-01T16:30:58;43.90;;;22.00;;
37309;SDS011;23195;47.744;7.358;2023-03-01T16:33:26;42.43;;;22.20;;
37309;SDS011;23195;47.744;7.358;2023-03-01T16:35:52;47.03;;;22.50;;
37309;SDS011;23195;47.744;7.358;2023-03-01T16:38:21;54.77;;;25.43;;
37309;SDS011;23195;47.744;7.358;2023-03-01T16:40:48;48.63;;;23.37;;
37309;SDS011;23195;47.744;7.358;2023-03-01T16:43:15;50.50;;;23.87;;
37309;SDS011;23195;47.744;7.358;2023-03-01T16:45:41;49.03;;;25.20;;
37309;SDS011;23195;47.744;7.358;2023-03-01T16:48:10;48.33;;;23.70;;
37309;SDS011;23195;47.744;7.358;2023-03-01T16:50:36;46.50;;;22.70;;
37309;SDS011;23195;47.744;7.358;2023-03-01T16:53:05;49.07;;;24.07;;
37309;SDS011;23195;47.744;7.358;2023-03-01T16:55:31;42.93;;;22.20;;
37309;SDS011;23195;47.744;7.358;2023-03-01T16:57:56;46.43;;;23.43;;
37309;SDS011;23195;47.744;7.358;2023-03-01T17:00:22;45.77;;;23.70;;
37309;SDS011;23195;47.744;7.358;2023-03-01T17:02:48;52.10;;;25.50;;
37309;SDS011;23195;47.744;7.358;2023-03-01T17:05:14;48.03;;;23.63;;
37309;SDS011;23195;47.744;7.358;2023-03-01T17:07:40;50.20;;;24.50;;
37309;SDS011;23195;47.744;7.358;2023-03-01T17:10:09;49.67;;;25.43;;
37309;SDS011;23195;47.744;7.358;2023-03-01T17:12:39;48.17;;;24.27;;
37309;SDS011;23195;47.744;7.358;2023-03-01T17:15:05;51.57;;;26.23;;
37309;SDS011;23195;47.744;7.358;2023-03-01T17:17:31;51.63;;;25.53;;
37309;SDS011;23195;47.744;7.358;2023-03-01T17:19:59;48.57;;;25.10;;
37309;SDS011;23195;47.744;7.358;2023-03-01T17:22:25;56.73;;;28.90;;
37309;SDS011;23195;47.744;7.358;2023-03-01T17:24:50;55.00;;;27.23;;
37309;SDS011;23195;47.744;7.358;2023-03-01T17:27:16;55.13;;;27.23;;
37309;SDS011;23195;47.744;7.358;2023-03-01T17:29:46;52.30;;;26.77;;
37309;SDS011;23195;47.744;7.358;2023-03-01T17:32:12;55.13;;;26.83;;
37309;SDS011;23195;47.744;7.358;2023-03-01T17:34:54;53.67;;;26.60;;
37309;SDS011;23195;47.744;7.358;2023-03-01T17:37:25;54.30;;;25.43;;
37309;SDS011;23195;47.744;7.358;2023-03-01T17:39:50;48.30;;;24.77;;
37309;SDS011;23195;47.744;7.358;2023-03-01T17:42:16;49.37;;;24.13;;
37309;SDS011;23195;47.744;7.358;2023-03-01T17:44:44;50.83;;;24.67;;
37309;SDS011;23195;47.744;7.358;2023-03-01T17:47:13;51.60;;;25.10;;
37309;SDS011;23195;47.744;7.358;2023-03-01T17:49:39;53.07;;;25.97;;
37309;SDS011;23195;47.744;7.358;2023-03-01T17:52:05;50.30;;;24.93;;
37309;SDS011;23195;47.744;7.358;2023-03-01T17:54:30;52.60;;;26.33;;
37309;SDS011;23195;47.744;7.358;2023-03-01T17:56:57;51.93;;;25.17;;
37309;SDS011;23195;47.744;7.358;2023-03-01T17:59:23;52.73;;;25.10;;
37309;SDS011;23195;47.744;7.358;2023-03-01T18:01:55;50.60;;;23.87;;
37309;SDS011;23195;47.744;7.358;2023-03-01T18:04:25;47.23;;;23.57;;
37309;SDS011;23195;47.744;7.358;2023-03-01T18:06:55;51.20;;;24.67;;
37309;SDS011;23195;47.744;7.358;2023-03-01T18:09:21;50.53;;;23.63;;
37309;SDS011;23195;47.744;7.358;2023-03-01T18:11:47;50.40;;;23.53;;
37309;SDS011;23195;47.744;7.358;2023-03-01T18:14:12;50.97;;;24.47;;
37309;SDS011;23195;47.744;7.358;2023-03-01T18:16:38;48.43;;;23.57;;
37309;SDS011;23195;47.744;7.358;2023-03-01T18:19:04;50.60;;;24.00;;
37309;SDS011;23195;47.744;7.358;2023-03-01T18:21:30;47.23;;;23.20;;
37309;SDS011;23195;47.744;7.358;2023-03-01T18:23:56;47.30;;;22.93;;
37309;SDS011;23195;47.744;7.358;2023-03-01T18:26:25;50.63;;;24.33;;
37309;SDS011;23195;47.744;7.358;2023-03-01T18:28:53;48.43;;;23.87;;
37309;SDS011;23195;47.744;7.358;2023-03-01T18:31:22;58.53;;;25.23;;
37309;SDS011;23195;47.744;7.358;2023-03-01T18:33:49;54.47;;;27.37;;
37309;SDS011;23195;47.744;7.358;2023-03-01T18:38:47;49.37;;;23.83;;
37309;SDS011;23195;47.744;7.358;2023-03-01T18:41:13;47.70;;;23.83;;
37309;SDS011;23195;47.744;7.358;2023-03-01T18:43:39;50.80;;;25.07;;
37309;SDS011;23195;47.744;7.358;2023-03-01T18:46:05;52.20;;;24.67;;
37309;SDS011;23195;47.744;7.358;2023-03-01T18:48:31;51.20;;;24.43;;
37309;SDS011;23195;47.744;7.358;2023-03-01T18:51:05;52.17;;;25.53;;
37309;SDS011;23195;47.744;7.358;2023-03-01T18:53:38;53.23;;;25.47;;
37309;SDS011;23195;47.744;7.358;2023-03-01T18:56:07;47.87;;;24.30;;
37309;SDS011;23195;47.744;7.358;2023-03-01T18:58:34;52.67;;;25.87;;
37309;SDS011;23195;47.744;7.358;2023-03-01T19:01:10;53.53;;;25.27;;
37309;SDS011;23195;47.744;7.358;2023-03-01T19:03:41;48.73;;;24.57;;
37309;SDS011;23195;47.744;7.358;2023-03-01T19:06:07;46.83;;;23.70;;
37309;SDS011;23195;47.744;7.358;2023-03-01T19:08:33;46.17;;;23.80;;
37309;SDS011;23195;47.744;7.358;2023-03-01T19:11:00;49.67;;;24.37;;
37309;SDS011;23195;47.744;7.358;2023-03-01T19:13:35;46.63;;;24.17;;
37309;SDS011;23195;47.744;7.358;2023-03-01T19:19:38;49.53;;;23.33;;
37309;SDS011;23195;47.744;7.358;2023-03-01T19:22:17;48.27;;;24.20;;
37309;SDS011;23195;47.744;7.358;2023-03-01T19:24:45;48.63;;;23.13;;
37309;SDS011;23195;47.744;7.358;2023-03-01T19:33:30;50.93;;;23.90;;
37309;SDS011;23195;47.744;7.358;2023-03-01T19:36:00;46.93;;;23.77;;
37309;SDS011;23195;47.744;7.358;2023-03-01T19:38:29;49.33;;;24.10;;
37309;SDS011;23195;47.744;7.358;2023-03-01T19:41:03;45.80;;;23.03;;
37309;SDS011;23195;47.744;7.358;2023-03-01T19:43:44;49.07;;;24.00;;
37309;SDS011;23195;47.744;7.358;2023-03-01T19:46:11;51.57;;;24.20;;
37309;SDS011;23195;47.744;7.358;2023-03-01T19:48:37;47.10;;;23.43;;
37309;SDS011;23195;47.744;7.358;2023-03-01T19:51:07;50.73;;;23.77;;
37309;SDS011;23195;47.744;7.358;2023-03-01T19:53:36;45.10;;;22.77;;
37309;SDS011;23195;47.744;7.358;2023-03-01T19:56:03;52.63;;;24.57;;
37309;SDS011;23195;47.744;7.358;2023-03-01T19:58:30;46.57;;;22.97;;
37309;SDS011;23195;47.744;7.358;2023-03-01T20:00:59;47.77;;;24.07;;
37309;SDS011;23195;47.744;7.358;2023-03-01T20:03:26;46.93;;;24.23;;
37309;SDS011;23195;47.744;7.358;2023-03-01T20:05:53;46.37;;;24.17;;
37309;SDS011;23195;47.744;7.358;2023-03-01T20:08:20;51.20;;;27.50;;
37309;SDS011;23195;47.744;7.358;2023-03-01T20:10:46;50.77;;;25.40;;
37309;SDS011;23195;47.744;7.358;2023-03-01T20:13:12;51.23;;;24.67;;
37309;SDS011;23195;47.744;7.358;2023-03-01T20:15:42;50.23;;;24.77;;
37309;SDS011;23195;47.744;7.358;2023-03-01T20:18:13;48.37;;;24.53;;
37309;SDS011;23195;47.744;7.358;2023-03-01T20:20:39;48.80;;;24.63;;
37309;SDS011;23195;47.744;7.358;2023-03-01T20:23:05;45.27;;;23.63;;
37309;SDS011;23195;47.744;7.358;2023-03-01T20:25:31;49.83;;;25.17;;
37309;SDS011;23195;47.744;7.358;2023-03-01T20:27:56;44.57;;;22.87;;
37309;SDS011;23195;47.744;7.358;2023-03-01T20:30:22;50.37;;;24.17;;
37309;SDS011;23195;47.744;7.358;2023-03-01T20:32:48;47.70;;;24.27;;
37309;SDS011;23195;47.744;7.358;2023-03-01T20:35:14;47.87;;;24.13;;
37309;SDS011;23195;47.744;7.358;2023-03-01T20:37:40;49.13;;;24.43;;
37309;SDS011;23195;47.744;7.358;2023-03-01T20:40:05;49.63;;;23.97;;
37309;SDS011;23195;47.744;7.358;2023-03-01T20:42:33;51.87;;;25.73;;
37309;SDS011;23195;47.744;7.358;2023-03-01T20:44:59;48.93;;;24.77;;
37309;SDS011;23195;47.744;7.358;2023-03-01T20:47:27;52.37;;;26.10;;
37309;SDS011;23195;47.744;7.358;2023-03-01T20:49:53;48.97;;;24.70;;
37309;SDS011;23195;47.744;7.358;2023-03-01T20:52:19;47.77;;;24.90;;
37309;SDS011;23195;47.744;7.358;2023-03-01T20:54:45;55.27;;;25.43;;
37309;SDS011;23195;47.744;7.358;2023-03-01T20:57:11;50.60;;;25.07;;
37309;SDS011;23195;47.744;7.358;2023-03-01T20:59:36;57.10;;;26.23;;
37309;SDS011;23195;47.744;7.358;2023-03-01T21:02:05;55.40;;;26.20;;
37309;SDS011;23195;47.744;7.358;2023-03-01T21:04:31;54.30;;;26.37;;
37309;SDS011;23195;47.744;7.358;2023-03-01T21:07:01;54.23;;;25.47;;
37309;SDS011;23195;47.744;7.358;2023-03-01T21:09:27;51.53;;;25.77;;
37309;SDS011;23195;47.744;7.358;2023-03-01T21:11:52;54.83;;;26.03;;
37309;SDS011;23195;47.744;7.358;2023-03-01T21:14:18;52.27;;;25.90;;
37309;SDS011;23195;47.744;7.358;2023-03-01T21:16:45;55.67;;;26.57;;
37309;SDS011;23195;47.744;7.358;2023-03-01T21:19:13;56.20;;;26.53;;
37309;SDS011;23195;47.744;7.358;2023-03-01T21:21:39;56.13;;;27.27;;
37309;SDS011;23195;47.744;7.358;2023-03-01T21:24:05;55.87;;;26.60;;
37309;SDS011;23195;47.744;7.358;2023-03-01T21:26:34;56.20;;;27.30;;
37309;SDS011;23195;47.744;7.358;2023-03-01T21:29:00;58.90;;;28.07;;
37309;SDS011;23195;47.744;7.358;2023-03-01T21:31:27;53.97;;;26.13;;
37309;SDS011;23195;47.744;7.358;2023-03-01T21:33:59;64.17;;;29.53;;
37309;SDS011;23195;47.744;7.358;2023-03-01T21:36:28;62.17;;;30.23;;
37309;SDS011;23195;47.744;7.358;2023-03-01T21:38:54;68.20;;;30.37;;
37309;SDS011;23195;47.744;7.358;2023-03-01T21:41:22;65.33;;;31.60;;
37309;SDS011;23195;47.744;7.358;2023-03-01T21:43:50;72.87;;;33.37;;
37309;SDS011;23195;47.744;7.358;2023-03-01T21:46:18;83.43;;;36.17;;
37309;SDS011;23195;47.744;7.358;2023-03-01T21:48:46;77.40;;;35.97;;
37309;SDS011;23195;47.744;7.358;2023-03-01T21:51:17;73.23;;;34.57;;
37309;SDS011;23195;47.744;7.358;2023-03-01T21:53:45;88.03;;;38.33;;
37309;SDS011;23195;47.744;7.358;2023-03-01T21:56:17;94.03;;;40.83;;
37309;SDS011;23195;47.744;7.358;2023-03-01T21:58:51;81.63;;;37.63;;
37309;SDS011;23195;47.744;7.358;2023-03-01T22:01:18;102.10;;;42.93;;
37309;SDS011;23195;47.744;7.358;2023-03-01T22:03:49;113.03;;;48.07;;
37309;SDS011;23195;47.744;7.358;2023-03-01T22:06:16;88.63;;;40.07;;
37309;SDS011;23195;47.744;7.358;2023-03-01T22:08:46;91.00;;;40.43;;
37309;SDS011;23195;47.744;7.358;2023-03-01T22:11:16;85.37;;;39.53;;
37309;SDS011;23195;47.744;7.358;2023-03-01T22:13:44;80.77;;;37.47;;
37309;SDS011;23195;47.744;7.358;2023-03-01T22:16:13;64.83;;;29.40;;
37309;SDS011;23195;47.744;7.358;2023-03-01T22:18:39;71.33;;;32.37;;
37309;SDS011;23195;47.744;7.358;2023-03-01T22:21:05;80.57;;;34.50;;
37309;SDS011;23195;47.744;7.358;2023-03-01T22:23:36;75.53;;;33.37;;
37309;SDS011;23195;47.744;7.358;2023-03-01T22:26:02;74.63;;;32.97;;
37309;SDS011;23195;47.744;7.358;2023-03-01T22:28:29;68.27;;;32.80;;
37309;SDS011;23195;47.744;7.358;2023-03-01T22:30:55;68.03;;;30.43;;
37309;SDS011;23195;47.744;7.358;2023-03-01T22:33:21;58.97;;;28.47;;
37309;SDS011;23195;47.744;7.358;2023-03-01T22:35:47;57.50;;;28.33;;
37309;SDS011;23195;47.744;7.358;2023-03-01T22:38:21;58.83;;;28.50;;
37309;SDS011;23195;47.744;7.358;2023-03-01T22:40:57;58.60;;;28.47;;
37309;SDS011;23195;47.744;7.358;2023-03-01T22:43:23;62.07;;;30.03;;
37309;SDS011;23195;47.744;7.358;2023-03-01T22:45:49;63.90;;;30.07;;
37309;SDS011;23195;47.744;7.358;2023-03-01T22:48:15;56.17;;;27.47;;
37309;SDS011;23195;47.744;7.358;2023-03-01T22:50:42;59.50;;;28.47;;
37309;SDS011;23195;47.744;7.358;2023-03-01T22:53:09;52.77;;;26.77;;
37309;SDS011;23195;47.744;7.358;2023-03-01T22:55:35;50.93;;;25.43;;
37309;SDS011;23195;47.744;7.358;2023-03-01T22:58:01;50.63;;;25.57;;
37309;SDS011;23195;47.744;7.358;2023-03-01T23:00:26;49.83;;;24.70;;
37309;SDS011;23195;47.744;7.358;2023-03-01T23:02:52;50.00;;;25.00;;
37309;SDS011;23195;47.744;7.358;2023-03-01T23:05:18;54.27;;;25.27;;
37309;SDS011;23195;47.744;7.358;2023-03-01T23:07:44;53.73;;;26.47;;
37309;SDS011;23195;47.744;7.358;2023-03-01T23:10:11;53.60;;;27.13;;
37309;SDS011;23195;47.744;7.358;2023-03-01T23:12:38;56.43;;;26.60;;
37309;SDS011;23195;47.744;7.358;2023-03-01T23:15:04;52.97;;;26.73;;
37309;SDS011;23195;47.744;7.358;2023-03-01T23:17:30;57.17;;;27.57;;
37309;SDS011;23195;47.744;7.358;2023-03-01T23:19:56;52.53;;;25.87;;
37309;SDS011;23195;47.744;7.358;2023-03-01T23:22:22;56.43;;;27.90;;
37309;SDS011;23195;47.744;7.358;2023-03-01T23:24:48;60.13;;;28.60;;
37309;SDS011;23195;47.744;7.358;2023-03-01T23:27:17;59.43;;;28.67;;
37309;SDS011;23195;47.744;7.358;2023-03-01T23:29:43;57.17;;;28.50;;
37309;SDS011;23195;47.744;7.358;2023-03-01T23:32:09;60.00;;;28.50;;
37309;SDS011;23195;47.744;7.358;2023-03-01T23:34:36;63.07;;;29.03;;
37309;SDS011;23195;47.744;7.358;2023-03-01T23:37:05;63.67;;;29.43;;
37309;SDS011;23195;47.744;7.358;2023-03-01T23:39:35;60.03;;;29.47;;
37309;SDS011;23195;47.744;7.358;2023-03-01T23:42:02;62.47;;;28.17;;
37309;SDS011;23195;47.744;7.358;2023-03-01T23:44:28;59.50;;;27.40;;
37309;SDS011;23195;47.744;7.358;2023-03-01T23:46:53;61.23;;;28.03;;
37309;SDS011;23195;47.744;7.358;2023-03-01T23:49:20;58.33;;;28.13;;